Aérodrome :
LOGIN :

S'inscrire | Disclaimer

   EN    FR    IT 

 










Légende :    VFR   VFR Marginal   IFR   IFR Intensif   IFR Très Intensif
Visi : 
Plafond : 
>= 8 km
>= 3000ft
5 à 8 km
1000 à 3000 ft
1500m à 5 km
500 à 1000 ft
800 à 1500m
200 à 500 ft
< 800m
< 200 ft
Symboles :   Orages  Brouillard  Fortes neiges  Fortes précipitations  Vent > 20 kt
SIGMETs :   Divers  Orages  Givrage  Turbulence  Onde Orograph.  Cendres Volcan.






- Altitude de l'aérodrome : 63 ft
- Code IATA : BZM


EHWO - Woensdrecht Airbase

DERNIER METAR :
  • 290435Z AUTO 22012KT 200V260 9999 FEW009 BKN016 BKN020 15/15 Q1009 WHT

METARs EXPIRÉS :
  • 290359Z AUTO 23013KT 200V270 9999 FEW010 BKN012 OVC017 15/15 Q1009 GRN
  • 290341Z AUTO 23009KT 190V270 9999 SCT010 BKN012 OVC016 15/15 Q1009 GRN
  • 290332Z AUTO 22009KT 180V260 9999 -DZRA FEW009 BKN012 OVC014 15/15 Q1009 GRN
  • 290309Z AUTO 22010KT 190V260 9999 FEW010 SCT014 OVC016 15/15 Q1009 GRN
  • 290255Z AUTO 22010KT 190V260 9999 FEW008 SCT009 BKN013 15/15 Q1009 GRN
  • 290239Z AUTO 22010KT 190V270 9999 FEW007 SCT008 BKN011 15/15 Q1009 GRN
  • 290225Z AUTO 22010KT 190V250 9000 -DZ FEW007 SCT008 BKN010 15/15 Q1009 REDZ GRN
  • 290156Z AUTO 22010KT 180V260 4700 +DZRA FEW007 SCT010 BKN013 15/15 Q1009 GRN
  • 290147Z AUTO 21008KT 180V250 9999 DZRA FEW007 SCT008 BKN011 FEW015CB 15/15 Q1010 GRN
  • 290125Z AUTO 22008KT 160V270 9999 -SHRA FEW007 SCT009 BKN010 15/15 Q1010 RERA GRN
  • 290055Z AUTO 22008KT 190V260 9999 FEW008 BKN013 OVC016 15/15 Q1010 REDZ GRN
  • 290046Z AUTO 22008KT 190V260 9999 SCT013 BKN016 OVC036 15/15 Q1010 GRN
  • 290031Z AUTO 22009KT 180V260 6000 -RADZ FEW006 SCT015 BKN035 15/15 Q1011 WHT
  • 290010Z AUTO 22008KT 180V260 9999 DZRA FEW006 BKN007 BKN009 15/15 Q1011 GRN
  • 282355Z AUTO 20005KT 160V230 9999 -RA FEW007 SCT013 OVC015 15/15 Q1011 RERA REDZ GRN

Prévision TAF périmée.



MET'MAP, la Météo Aéronautique d'un coup d'oeil ! - Copyright ORBIFLY Décembre 2007 - Disclaimer

ORBIFLY MET'MAP TEAM :

Programmation & Développement : Alexandra Zaïnal
Sur une idée originale de : Baudouin d'Aumeries
Soutien technique & logistique : Manuel Goepfert
Assistance : Marc-Olivier Méhu




SOURCES & CREDITS :

   NOAA